Time;durP1;ratioP1;P1;durP2;ratioP2;P2;SDS_P1;SDS_P2;PMS_P1;PMS_P2;Temp;Humidity;BMP_temperature;BMP_pressure;BME280_temperature;BME280_humidity;BME280_pressure;Samples;Min_cycle;Max_cycle;Signal;HPM_P1;HPM_P2
2024/03/19 00:00:48;;;;;;;9.98;2.25;;;;;;;1.52;100.00;102123.28;5062805;28;20044;-76
2024/03/19 00:03:15;;;;;;;6.43;1.70;;;;;;;1.54;100.00;102126.69;5062170;28;20017;-75
2024/03/19 00:05:41;;;;;;;8.25;1.73;;;;;;;1.53;100.00;102125.84;5062323;28;20372;-75
2024/03/19 00:08:06;;;;;;;5.82;1.55;;;;;;;1.52;100.00;102124.13;5062722;28;20046;-75
2024/03/19 00:10:32;;;;;;;4.28;1.40;;;;;;;1.53;100.00;102132.97;5062734;28;20088;-76
2024/03/19 00:12:57;;;;;;;7.20;1.40;;;;;;;1.51;100.00;102127.75;5062659;28;20083;-78
2024/03/19 00:15:23;;;;;;;4.53;1.10;;;;;;;1.50;100.00;102138.47;5062648;28;20033;-75
2024/03/19 00:17:48;;;;;;;3.65;0.93;;;;;;;1.39;100.00;102108.25;5063512;28;20396;-75
2024/03/19 00:20:13;;;;;;;3.42;1.20;;;;;;;1.32;100.00;102103.47;5062675;28;20479;-75
2024/03/19 00:22:39;;;;;;;6.40;1.27;;;;;;;1.47;100.00;102125.44;5061923;28;20057;-75
2024/03/19 00:25:08;;;;;;;5.47;1.15;;;;;;;1.47;100.00;102130.72;5062539;28;20028;-75
2024/03/19 00:27:34;;;;;;;5.32;1.15;;;;;;;1.43;100.00;102126.59;5063599;28;20021;-75
2024/03/19 00:30:00;;;;;;;6.03;1.10;;;;;;;1.36;100.00;102124.38;5061700;28;20053;-75
2024/03/19 00:32:32;;;;;;;2.92;0.85;;;;;;;1.34;100.00;102122.78;5061466;28;20025;-76
2024/03/19 00:34:57;;;;;;;2.83;0.80;;;;;;;1.36;100.00;102113.75;5067290;28;20032;-75
2024/03/19 00:37:23;;;;;;;4.63;1.05;;;;;;;1.24;100.00;102092.56;5065900;28;20032;-75
2024/03/19 00:39:48;;;;;;;5.18;1.02;;;;;;;1.35;100.00;102113.84;5063743;28;20036;-75
2024/03/19 00:42:14;;;;;;;9.38;1.23;;;;;;;1.32;100.00;102117.56;5065168;28;20029;-75
2024/03/19 00:44:39;;;;;;;6.95;1.13;;;;;;;1.31;100.00;102115.88;5062775;28;20484;-75
2024/03/19 00:47:05;;;;;;;5.78;1.45;;;;;;;1.29;100.00;102108.97;5063170;28;20033;-75
2024/03/19 00:49:30;;;;;;;5.55;1.00;;;;;;;1.24;100.00;102108.47;5062944;28;20488;-76
2024/03/19 00:51:56;;;;;;;6.65;1.00;;;;;;;1.31;100.00;102120.34;5063242;28;20032;-75
2024/03/19 00:54:22;;;;;;;6.38;1.00;;;;;;;1.32;100.00;102116.72;5063589;28;20033;-76
2024/03/19 00:56:47;;;;;;;2.10;0.80;;;;;;;1.14;100.00;102097.66;5061656;28;20036;-76
2024/03/19 00:59:12;;;;;;;4.53;1.00;;;;;;;1.26;100.00;102120.66;5060939;28;20056;-76
2024/03/19 01:01:38;;;;;;;4.32;1.05;;;;;;;1.30;100.00;102113.34;5061982;28;20060;-78
2024/03/19 01:04:07;;;;;;;3.15;0.80;;;;;;;1.31;100.00;102120.34;5061951;28;20032;-75
2024/03/19 01:06:38;;;;;;;4.72;1.10;;;;;;;1.31;100.00;102115.88;5062883;28;20049;-76
2024/03/19 01:09:12;;;;;;;2.80;0.70;;;;;;;1.33;100.00;102111.31;5062865;28;20062;-75
2024/03/19 01:11:41;;;;;;;4.75;1.02;;;;;;;1.18;100.00;102086.72;5062245;28;20055;-76
2024/03/19 01:14:06;;;;;;;8.23;0.90;;;;;;;1.13;100.00;102080.06;5059742;28;20037;-76
2024/03/19 01:16:33;;;;;;;4.03;1.10;;;;;;;1.34;100.00;102120.97;5060813;28;20333;-76
2024/03/19 01:18:58;;;;;;;5.93;1.00;;;;;;;1.36;100.00;102119.06;5062805;28;20108;-76
2024/03/19 01:21:24;;;;;;;4.53;0.98;;;;;;;1.26;100.00;102104.75;5062305;28;20507;-76
2024/03/19 01:23:49;;;;;;;3.90;1.20;;;;;;;0.90;100.00;102039.22;5063613;28;20029;-76
2024/03/19 01:26:15;;;;;;;4.68;1.10;;;;;;;1.32;100.00;102127.31;5063002;28;20033;-76
2024/03/19 01:28:40;;;;;;;4.88;1.10;;;;;;;1.30;100.00;102118.66;5063758;28;20033;-76
2024/03/19 01:31:06;;;;;;;5.55;1.15;;;;;;;1.28;100.00;102118.72;5062984;28;20033;-75
2024/03/19 01:33:31;;;;;;;10.20;1.92;;;;;;;1.24;100.00;102117.25;5060781;28;20040;-76
2024/03/19 01:35:56;;;;;;;5.57;1.38;;;;;;;1.20;100.00;102113.13;5063131;28;20029;-76
2024/03/19 01:38:25;;;;;;;6.30;1.25;;;;;;;1.13;100.00;102101.25;5062319;28;20090;-77
2024/03/19 01:40:52;;;;;;;3.72;1.00;;;;;;;1.14;100.00;102122.34;5063223;28;20044;-76
2024/03/19 01:43:21;;;;;;;8.40;1.30;;;;;;;1.10;100.00;102112.06;5063952;28;20032;-77
2024/03/19 01:46:06;;;;;;;6.30;1.40;;;;;;;0.59;100.00;102028.06;5063437;28;20033;-76
2024/03/19 01:48:36;;;;;;;9.55;1.40;;;;;;;1.00;100.00;102100.41;5061941;28;20055;-76
2024/03/19 01:51:02;;;;;;;4.13;1.13;;;;;;;0.98;100.00;102107.59;5062598;28;20037;-76
2024/03/19 01:53:28;;;;;;;7.95;1.33;;;;;;;0.83;100.00;102081.19;5063509;28;20033;-76
2024/03/19 01:55:55;;;;;;;6.97;1.33;;;;;;;0.87;100.00;102103.88;5061539;28;20372;-76
2024/03/19 01:58:22;;;;;;;8.60;1.40;;;;;;;0.85;100.00;102099.63;5063331;28;20051;-76
2024/03/19 02:00:48;;;;;;;5.75;1.50;;;;;;;0.67;100.00;102072.59;5062394;28;20053;-75
2024/03/19 02:03:15;;;;;;;6.07;1.25;;;;;;;0.76;100.00;102093.16;5062570;28;20029;-76
2024/03/19 02:05:42;;;;;;;2.67;1.13;;;;;;;0.72;100.00;102089.00;5062082;28;20053;-76
2024/03/19 02:08:08;;;;;;;4.47;1.08;;;;;;;0.69;100.00;102089.22;5060574;28;20119;-76
2024/03/19 02:10:33;;;;;;;9.63;1.65;;;;;;;0.63;100.00;102095.78;5062231;28;20075;-76
2024/03/19 02:12:59;;;;;;;5.50;1.02;;;;;;;0.61;100.00;102091.53;5063624;28;20029;-75
2024/03/19 02:15:24;;;;;;;4.55;1.10;;;;;;;0.33;100.00;102051.03;5062818;28;20094;-76
2024/03/19 02:17:51;;;;;;;2.92;1.08;;;;;;;0.51;100.00;102086.00;5060630;28;20052;-75
2024/03/19 02:20:17;;;;;;;4.18;1.27;;;;;;;0.41;100.00;102069.03;5060456;28;20056;-76
2024/03/19 02:22:49;;;;;;;6.95;1.30;;;;;;;0.47;100.00;102088.03;5062252;28;20025;-76
2024/03/19 02:25:16;;;;;;;4.00;0.98;;;;;;;0.46;100.00;102091.63;5062993;28;20029;-76
2024/03/19 02:27:43;;;;;;;4.00;1.20;;;;;;;0.42;100.00;102087.47;5062119;28;20025;-76
2024/03/19 02:30:09;;;;;;;4.65;1.10;;;;;;;0.40;100.00;102091.19;5061311;28;20072;-76
2024/03/19 02:32:34;;;;;;;5.50;1.30;;;;;;;0.23;100.00;102061.38;5060454;28;20353;-76
2024/03/19 02:35:00;;;;;;;5.05;1.20;;;;;;;0.33;100.00;102090.75;5059022;28;20025;-76
2024/03/19 02:37:26;;;;;;;3.90;1.10;;;;;;;0.30;100.00;102090.94;5061695;28;20053;-77
2024/03/19 02:39:52;;;;;;;3.67;0.90;;;;;;;0.20;100.00;102084.56;5059933;28;20036;-75
2024/03/19 02:42:19;;;;;;;3.33;0.93;;;;;;;0.24;100.00;102101.94;5059397;28;20033;-76
2024/03/19 02:44:45;;;;;;;3.08;1.17;;;;;;;0.20;100.00;102097.78;5060012;28;20033;-75
2024/03/19 02:47:10;;;;;;;6.07;1.00;;;;;;;0.01;100.00;102073.47;5062498;28;20047;-75
2024/03/19 02:49:36;;;;;;;4.35;1.00;;;;;;;0.16;100.00;102098.91;5060449;28;20108;-76
2024/03/19 02:52:01;;;;;;;3.30;1.10;;;;;;;0.07;100.00;102102.19;5062702;28;20470;-75
2024/03/19 02:54:28;;;;;;;4.18;1.20;;;;;;;0.06;100.00;102103.09;5062853;28;20512;-75
2024/03/19 02:56:54;;;;;;;5.40;1.15;;;;;;;-0.01;100.00;102100.84;5062228;28;20136;-75
2024/03/19 02:59:19;;;;;;;3.53;1.00;;;;;;;-0.02;100.00;102104.47;5061414;28;20068;-75
2024/03/19 03:01:44;;;;;;;2.85;1.30;;;;;;;-0.03;100.00;102099.28;5059668;28;20044;-75
2024/03/19 03:04:12;;;;;;;2.85;1.02;;;;;;;-0.06;100.00;102100.31;5059773;28;20029;-75
2024/03/19 03:06:37;;;;;;;5.88;1.17;;;;;;;-0.09;100.00;102097.88;5059865;28;20427;-76
2024/03/19 03:09:03;;;;;;;3.92;1.30;;;;;;;-0.31;100.00;102073.72;5060214;28;20032;-76
2024/03/19 03:11:29;;;;;;;4.65;1.05;;;;;;;-0.15;100.00;102089.47;5060151;28;20029;-77
2024/03/19 03:13:54;;;;;;;6.00;1.15;;;;;;;-0.18;100.00;102092.31;5060664;28;20035;-78
2024/03/19 03:16:21;;;;;;;2.90;0.90;;;;;;;-0.25;100.00;102078.63;5058219;28;20086;-75
2024/03/19 03:18:47;;;;;;;3.70;1.05;;;;;;;-0.22;100.00;102089.00;5059087;28;20060;-76
2024/03/19 03:21:12;;;;;;;2.03;0.93;;;;;;;-0.26;100.00;102079.59;5060515;28;20033;-75
2024/03/19 03:23:39;;;;;;;4.03;1.02;;;;;;;-0.28;100.00;102089.41;5058666;28;20096;-76
2024/03/19 03:26:04;;;;;;;4.25;1.20;;;;;;;-0.31;100.00;102081.66;5058383;28;20028;-76
2024/03/19 03:28:30;;;;;;;4.05;1.20;;;;;;;-0.29;100.00;102083.25;5062184;28;20021;-77
2024/03/19 03:30:55;;;;;;;3.85;1.20;;;;;;;-0.34;100.00;102080.03;5062740;28;20029;-77
2024/03/19 03:33:22;;;;;;;3.33;1.08;;;;;;;-0.32;100.00;102087.91;5063534;28;20031;-76
2024/03/19 03:35:47;;;;;;;2.78;1.10;;;;;;;-0.38;100.00;102083.00;5062616;28;20131;-76
2024/03/19 03:38:13;;;;;;;5.88;1.10;;;;;;;-0.39;100.00;102073.38;5063386;28;20130;-77
2024/03/19 03:40:39;;;;;;;5.05;1.20;;;;;;;-0.35;100.00;102085.44;5063487;28;20025;-76
2024/03/19 03:43:04;;;;;;;3.78;0.90;;;;;;;-0.54;100.00;102056.66;5063126;28;20029;-76
2024/03/19 03:45:30;;;;;;;3.40;0.93;;;;;;;-0.36;100.00;102083.75;5062621;28;20074;-77
2024/03/19 03:47:55;;;;;;;6.30;1.85;;;;;;;-0.34;100.00;102077.41;5064059;28;20032;-76
2024/03/19 03:50:21;;;;;;;6.38;1.30;;;;;;;-0.34;100.00;102073.91;5063830;28;20021;-76
2024/03/19 03:52:46;;;;;;;1.02;0.80;;;;;;;-0.36;100.00;102079.31;5063525;28;20021;-78
2024/03/19 03:55:12;;;;;;;3.05;1.10;;;;;;;-0.47;100.00;102069.38;5063045;28;20055;-77
2024/03/19 03:57:40;;;;;;;3.15;1.17;;;;;;;-0.38;100.00;102086.47;5063343;28;20093;-77
2024/03/19 04:00:10;;;;;;;3.78;1.00;;;;;;;-0.38;100.00;102083.84;5063682;28;20060;-76
2024/03/19 04:02:36;;;;;;;4.65;1.02;;;;;;;-0.39;100.00;102081.31;5063287;28;20032;-76
2024/03/19 04:05:02;;;;;;;5.55;1.00;;;;;;;-0.40;100.00;102084.88;5062781;28;20088;-76
2024/03/19 04:07:27;;;;;;;4.20;1.17;;;;;;;-0.41;100.00;102083.19;5063248;28;20063;-78
2024/03/19 04:09:53;;;;;;;3.72;0.90;;;;;;;-0.40;100.00;102082.22;5062353;28;20025;-78
2024/03/19 04:12:18;;;;;;;3.88;1.00;;;;;;;-0.38;100.00;102077.69;5045821;28;20033;-77
2024/03/19 04:14:43;;;;;;;3.10;1.00;;;;;;;-0.40;100.00;102080.44;5043517;28;20585;-78
2024/03/19 04:17:12;;;;;;;3.35;1.00;;;;;;;-0.41;100.00;102069.97;5008645;28;20037;-77
2024/03/19 04:19:38;;;;;;;5.05;0.90;;;;;;;-0.52;100.00;102055.63;5042534;28;20029;-76
2024/03/19 04:22:03;;;;;;;3.05;1.20;;;;;;;-0.40;100.00;102069.00;5042811;28;20037;-77
2024/03/19 04:24:28;;;;;;;3.10;0.85;;;;;;;-0.42;100.00;102062.97;5043453;28;20033;-76
2024/03/19 04:26:54;;;;;;;3.92;1.20;;;;;;;-0.43;100.00;102053.31;5042880;28;20072;-76
2024/03/19 04:29:20;;;;;;;3.83;1.00;;;;;;;-0.45;100.00;102056.09;5042761;28;20033;-76
2024/03/19 04:31:46;;;;;;;3.30;0.93;;;;;;;-0.45;100.00;102063.19;5042661;28;20033;-78
2024/03/19 04:34:12;;;;;;;5.05;1.00;;;;;;;-0.48;100.00;102062.41;5042403;28;20042;-76
2024/03/19 04:36:38;;;;;;;3.53;1.02;;;;;;;-0.67;100.00;102024.84;5042982;28;20029;-76
2024/03/19 04:39:10;;;;;;;1.67;0.95;;;;;;;-0.51;100.00;102059.97;5041851;28;20033;-76
2024/03/19 04:41:39;;;;;;;7.68;1.70;;;;;;;-0.47;100.00;102064.09;5042131;28;20029;-76
2024/03/19 04:44:05;;;;;;;5.15;1.15;;;;;;;-0.47;100.00;102060.59;5043252;28;20084;-76
2024/03/19 04:46:30;;;;;;;4.45;1.00;;;;;;;-0.53;100.00;102053.06;5045295;28;20037;-75
2024/03/19 04:48:56;;;;;;;2.95;1.00;;;;;;;-0.65;100.00;102033.53;5056578;28;20033;-76
2024/03/19 04:51:21;;;;;;;5.13;1.10;;;;;;;-0.45;100.00;102071.09;5062207;28;20060;-76
2024/03/19 04:53:46;;;;;;;3.70;1.23;;;;;;;-0.48;100.00;102073.00;5062396;28;20032;-76
2024/03/19 04:56:12;;;;;;;2.75;1.40;;;;;;;-0.50;100.00;102071.38;5060186;28;20055;-77
2024/03/19 04:58:38;;;;;;;3.85;1.30;;;;;;;-0.54;100.00;102072.53;5063285;28;20033;-75
2024/03/19 05:01:03;;;;;;;4.22;1.08;;;;;;;-0.52;100.00;102078.56;5062349;28;20093;-76
2024/03/19 05:03:29;;;;;;;2.63;1.00;;;;;;;-1.03;100.00;101991.00;5061626;28;20112;-75
2024/03/19 05:05:54;;;;;;;3.42;1.10;;;;;;;-0.52;100.00;102075.94;5062420;28;20043;-75
2024/03/19 05:08:20;;;;;;;5.93;1.30;;;;;;;-0.50;100.00;102068.72;5060442;28;20080;-75
2024/03/19 05:10:45;;;;;;;7.63;1.20;;;;;;;-0.62;100.00;102058.94;5061474;28;20788;-74
2024/03/19 05:13:10;;;;;;;3.35;1.52;;;;;;;-0.53;100.00;102080.38;5057798;28;20025;-79
2024/03/19 05:15:36;;;;;;;5.05;1.27;;;;;;;-0.50;100.00;102068.72;5061021;28;20025;-74
2024/03/19 05:18:02;;;;;;;3.88;1.13;;;;;;;-0.51;100.00;102077.63;5059732;28;20484;-76
2024/03/19 05:20:27;;;;;;;3.25;1.02;;;;;;;-0.51;100.00;102083.75;5055826;28;20043;-74
2024/03/19 05:22:53;;;;;;;3.45;1.10;;;;;;;-0.67;100.00;102046.00;5059218;28;20025;-75
2024/03/19 05:25:18;;;;;;;5.05;1.45;;;;;;;-0.53;100.00;102075.09;5054153;28;20089;-74
2024/03/19 05:27:43;;;;;;;3.88;1.20;;;;;;;-0.55;100.00;102076.97;5058110;28;20710;-75
2024/03/19 05:30:10;;;;;;;2.15;1.10;;;;;;;-0.64;100.00;102056.38;5060064;28;20100;-77
2024/03/19 05:32:36;;;;;;;4.53;1.30;;;;;;;-0.49;100.00;102075.75;5063641;28;20569;-79
2024/03/19 05:35:02;;;;;;;3.28;1.30;;;;;;;-0.62;100.00;102046.56;5061552;28;20041;-78
2024/03/19 05:37:27;;;;;;;2.97;0.95;;;;;;;-0.47;100.00;102073.81;5060787;28;20462;-76
2024/03/19 05:39:52;;;;;;;5.50;1.20;;;;;;;-0.45;100.00;102057.88;5059837;28;20150;-78
2024/03/19 05:42:18;;;;;;;4.25;1.20;;;;;;;-0.52;100.00;102038.91;5060048;28;20051;-74
2024/03/19 05:44:43;;;;;;;4.60;1.30;;;;;;;-0.32;100.00;102066.75;5056304;28;20033;-75
2024/03/19 05:47:09;;;;;;;2.70;0.98;;;;;;;-0.26;100.00;102067.19;5057621;28;20047;-75
2024/03/19 05:49:35;;;;;;;4.47;1.05;;;;;;;-0.24;100.00;102069.72;5059378;28;20491;-77
2024/03/19 05:52:01;;;;;;;4.53;1.50;;;;;;;-0.15;100.00;102071.78;5056208;28;20049;-74
2024/03/19 05:54:26;;;;;;;3.28;1.30;;;;;;;-0.10;100.00;102072.38;5055986;28;20036;-76
2024/03/19 05:56:51;;;;;;;4.45;1.35;;;;;;;-0.01;100.00;102071.75;5050723;28;20096;-76
2024/03/19 05:59:17;;;;;;;2.35;1.50;;;;;;;-0.06;100.00;102057.97;5057472;28;20035;-77
2024/03/19 06:01:42;;;;;;;4.05;1.25;;;;;;;-0.05;100.00;102066.75;5043582;28;20107;-77
2024/03/19 06:04:08;;;;;;;3.05;1.40;;;;;;;-0.36;100.00;102005.25;5064984;28;20025;-76
2024/03/19 06:06:33;;;;;;;7.95;1.38;;;;;;;0.12;100.00;102073.59;5047840;28;20037;-75
2024/03/19 06:08:59;;;;;;;6.45;1.48;;;;;;;0.16;100.00;102067.16;5049062;28;20025;-75
2024/03/19 06:11:26;;;;;;;2.58;1.17;;;;;;;0.20;100.00;102068.66;5058919;28;20025;-77
2024/03/19 06:13:51;;;;;;;4.93;1.42;;;;;;;0.26;100.00;102073.53;5058349;28;20017;-75
2024/03/19 06:16:17;;;;;;;4.47;1.40;;;;;;;0.31;100.00;102068.81;5057219;28;20035;-76
2024/03/19 06:18:42;;;;;;;5.70;1.10;;;;;;;0.36;100.00;102068.50;5056607;28;20051;-77
2024/03/19 06:21:08;;;;;;;3.88;1.35;;;;;;;0.28;100.00;102052.28;5057061;28;20059;-76
2024/03/19 06:23:33;;;;;;;9.93;1.70;;;;;;;0.49;100.00;102071.16;5055883;28;20093;-76
2024/03/19 06:25:58;;;;;;;4.57;1.70;;;;;;;0.40;100.00;102077.94;5048806;28;20067;-76
2024/03/19 06:28:24;;;;;;;3.03;1.20;;;;;;;0.51;100.00;102082.53;5044733;28;20074;-77
2024/03/19 06:30:52;;;;;;;4.13;1.10;;;;;;;0.50;100.00;102075.50;5046299;28;20472;-76
2024/03/19 06:33:18;;;;;;;3.88;1.38;;;;;;;0.44;100.00;102077.63;5052011;28;20025;-75
2024/03/19 06:35:44;;;;;;;6.05;1.40;;;;;;;0.34;100.00;102063.31;5057250;28;20120;-77
2024/03/19 06:38:10;;;;;;;4.00;1.27;;;;;;;0.51;100.00;102069.28;5057216;28;20058;-75
2024/03/19 06:40:35;;;;;;;2.38;1.48;;;;;;;0.58;100.00;102067.91;5057564;28;20479;-76
2024/03/19 06:43:00;;;;;;;2.78;1.40;;;;;;;0.63;100.00;102079.03;5056858;28;20122;-75
2024/03/19 06:45:30;;;;;;;3.05;1.40;;;;;;;0.64;100.00;102072.81;5056706;28;20021;-75
2024/03/19 06:47:56;;;;;;;10.48;1.33;;;;;;;0.68;100.00;102071.63;5056527;28;20044;-75
2024/03/19 06:50:22;;;;;;;2.67;1.15;;;;;;;0.69;100.00;102075.97;5057076;28;20029;-75
2024/03/19 06:52:48;;;;;;;4.22;1.30;;;;;;;0.72;100.00;102078.41;5057102;28;20087;-75
2024/03/19 06:55:15;;;;;;;6.18;1.38;;;;;;;0.74;100.00;102075.69;5057497;28;20037;-75
2024/03/19 06:57:42;;;;;;;3.17;1.20;;;;;;;0.78;100.00;102074.50;5057079;28;20026;-75
2024/03/19 07:00:13;;;;;;;5.78;1.00;;;;;;;0.59;100.00;102040.47;5057062;28;20045;-75
2024/03/19 07:02:42;;;;;;;5.03;1.15;;;;;;;0.76;100.00;102077.25;5059828;28;20092;-75
2024/03/19 07:05:09;;;;;;;4.97;1.17;;;;;;;0.76;100.00;102061.34;5062596;28;20033;-76
2024/03/19 07:07:35;;;;;;;5.45;1.02;;;;;;;0.61;100.00;102041.22;5061936;28;20037;-75
2024/03/19 07:10:02;;;;;;;7.22;1.30;;;;;;;0.76;100.00;102064.00;5062308;28;20029;-76
2024/03/19 07:12:28;;;;;;;3.55;1.20;;;;;;;0.41;100.00;101985.16;5060944;28;20037;-75
2024/03/19 07:14:57;;;;;;;6.60;1.33;;;;;;;0.93;100.00;102068.19;5062141;28;20032;-75
2024/03/19 07:17:24;;;;;;;4.57;1.23;;;;;;;1.02;100.00;102066.66;5061981;28;20032;-75
2024/03/19 07:19:49;;;;;;;5.28;1.45;;;;;;;1.10;100.00;102073.16;5064944;28;20075;-75
2024/03/19 07:22:14;;;;;;;4.60;1.10;;;;;;;1.05;100.00;102077.06;5066818;28;20025;-75
2024/03/19 07:24:40;;;;;;;2.78;1.20;;;;;;;1.20;100.00;102073.38;5067743;28;20344;-75
2024/03/19 07:27:06;;;;;;;4.53;1.10;;;;;;;1.27;100.00;102079.94;5067359;28;20039;-76
2024/03/19 07:29:32;;;;;;;2.58;1.25;;;;;;;0.99;100.00;102013.88;5061690;28;20107;-75
2024/03/19 07:31:57;;;;;;;1.20;0.80;;;;;;;1.30;100.00;102077.06;5060462;28;20049;-75
2024/03/19 07:34:22;;;;;;;3.72;1.00;;;;;;;1.38;100.00;102074.72;5061347;28;20048;-75
2024/03/19 07:36:48;;;;;;;2.78;1.00;;;;;;;1.41;100.00;102079.78;5058943;28;20048;-75
2024/03/19 07:39:13;;;;;;;4.63;0.88;;;;;;;1.37;100.00;102082.78;5060084;28;20092;-75
2024/03/19 07:41:41;;;;;;;3.90;1.55;;;;;;;1.49;100.00;102081.06;5059798;28;20039;-75
2024/03/19 07:44:08;;;;;;;6.43;1.20;;;;;;;1.56;100.00;102087.66;5060603;28;20024;-75
2024/03/19 07:46:34;;;;;;;6.35;1.33;;;;;;;1.51;100.00;102092.41;5060560;28;20056;-75
2024/03/19 07:49:00;;;;;;;5.50;1.20;;;;;;;1.48;100.00;102074.06;5060105;28;20040;-75
2024/03/19 07:51:27;;;;;;;3.20;0.90;;;;;;;1.50;100.00;102086.25;5059895;28;20032;-75
2024/03/19 07:53:53;;;;;;;5.15;1.25;;;;;;;1.55;100.00;102091.22;5058849;28;20032;-75
2024/03/19 07:56:18;;;;;;;1.50;1.00;;;;;;;1.53;100.00;102087.88;5059854;28;20453;-75
2024/03/19 07:58:44;;;;;;;8.05;1.38;;;;;;;1.62;100.00;102089.84;5060080;28;20039;-75
2024/03/19 08:01:09;;;;;;;3.63;1.00;;;;;;;1.67;100.00;102085.06;5062647;28;20080;-75
2024/03/19 08:03:35;;;;;;;2.97;1.10;;;;;;;1.67;100.00;102079.75;5062542;28;20036;-75
2024/03/19 08:06:01;;;;;;;4.90;1.10;;;;;;;1.70;100.00;102076.88;5062306;28;20111;-75
2024/03/19 08:08:27;;;;;;;3.08;1.30;;;;;;;1.80;100.00;102079.72;5062614;28;20025;-75
2024/03/19 08:10:53;;;;;;;3.88;1.05;;;;;;;1.85;100.00;102082.88;5061169;28;20032;-75
2024/03/19 08:13:19;;;;;;;6.47;1.00;;;;;;;1.91;100.00;102074.47;5062745;28;20025;-75
2024/03/19 08:15:44;;;;;;;3.58;1.00;;;;;;;1.93;100.00;102071.72;5062816;28;20025;-75
2024/03/19 08:18:10;;;;;;;4.00;1.23;;;;;;;1.96;100.00;102075.00;5063087;28;20492;-75
2024/03/19 08:20:35;;;;;;;4.18;1.08;;;;;;;1.99;100.00;102069.47;5062325;28;20084;-75
2024/03/19 08:23:02;;;;;;;3.90;1.25;;;;;;;1.92;100.00;102065.56;5062638;28;20028;-75
2024/03/19 08:25:27;;;;;;;4.22;1.50;;;;;;;1.94;100.00;102071.59;5062669;28;20061;-75
2024/03/19 08:27:53;;;;;;;5.18;1.30;;;;;;;1.77;100.00;102035.69;5062885;28;20041;-75
2024/03/19 08:30:19;;;;;;;4.53;1.02;;;;;;;2.04;100.00;102067.31;5061994;28;20435;-75
2024/03/19 08:32:45;;;;;;;3.20;1.10;;;;;;;2.10;100.00;102066.03;5062706;28;20032;-75
2024/03/19 08:35:11;;;;;;;3.50;1.00;;;;;;;2.25;100.00;102064.91;5062347;28;20472;-75
2024/03/19 08:37:36;;;;;;;3.95;1.08;;;;;;;2.14;100.00;102029.47;5062264;28;20035;-76
2024/03/19 08:40:05;;;;;;;9.55;1.13;;;;;;;2.28;100.00;102047.88;5061974;28;20036;-76
2024/03/19 08:42:32;;;;;;;3.15;1.10;;;;;;;2.44;100.00;102058.19;5061828;28;20024;-75
2024/03/19 08:44:58;;;;;;;4.00;1.23;;;;;;;2.48;100.00;102051.69;5061810;28;20033;-76
2024/03/19 08:47:23;;;;;;;3.20;1.30;;;;;;;2.38;100.00;102042.72;5062169;28;20090;-76
2024/03/19 08:49:48;;;;;;;2.92;1.08;;;;;;;2.64;100.00;102060.19;5061645;28;20048;-76
2024/03/19 08:52:14;;;;;;;1.92;0.80;;;;;;;2.74;100.00;102061.19;5061970;28;20093;-76
2024/03/19 08:54:40;;;;;;;1.58;0.90;;;;;;;2.52;100.00;102006.19;5061535;28;20044;-76
2024/03/19 08:57:06;;;;;;;2.72;0.90;;;;;;;2.87;100.00;102052.28;5060920;28;20029;-75
2024/03/19 08:59:32;;;;;;;5.00;1.30;;;;;;;3.02;100.00;102048.44;5059398;28;20037;-76
2024/03/19 09:01:58;;;;;;;3.75;1.08;;;;;;;3.11;100.00;102045.03;5059153;28;20039;-76
2024/03/19 09:04:23;;;;;;;4.45;0.95;;;;;;;3.09;100.00;102044.31;5059537;28;20029;-76
2024/03/19 09:06:49;;;;;;;2.53;0.90;;;;;;;3.24;100.00;102042.25;5059285;28;20415;-76
2024/03/19 09:09:14;;;;;;;3.47;0.90;;;;;;;3.14;100.00;102041.28;5059004;28;20024;-75
2024/03/19 09:11:39;;;;;;;4.88;1.17;;;;;;;3.34;100.00;102042.38;5058883;28;20076;-76
2024/03/19 09:14:05;;;;;;;4.40;1.00;;;;;;;3.46;100.00;102041.41;5061047;28;20044;-76
2024/03/19 09:16:31;;;;;;;2.83;1.10;;;;;;;3.46;100.00;102031.63;5062300;28;20052;-77
2024/03/19 09:18:56;;;;;;;2.55;0.90;;;;;;;3.64;100.00;102034.63;5061858;28;20407;-76
2024/03/19 09:21:21;;;;;;;2.25;0.80;;;;;;;3.73;100.00;102041.84;5061680;28;20028;-76
2024/03/19 09:23:47;;;;;;;3.58;0.85;;;;;;;3.69;100.00;102024.44;5061664;28;20056;-76
2024/03/19 09:26:12;;;;;;;2.42;1.30;;;;;;;3.67;100.00;102037.03;5060700;28;20048;-76
2024/03/19 09:28:38;;;;;;;2.17;0.80;;;;;;;3.64;100.00;102029.31;5061120;28;20104;-76
2024/03/19 09:31:03;;;;;;;6.28;1.08;;;;;;;3.68;100.00;102041.41;5061393;28;20483;-76
2024/03/19 09:33:29;;;;;;;4.15;1.02;;;;;;;3.64;100.00;102039.97;5059916;28;20025;-76
2024/03/19 09:35:55;;;;;;;4.13;0.90;;;;;;;3.64;100.00;102015.13;5060496;28;20123;-76
2024/03/19 09:38:21;;;;;;;2.63;1.10;;;;;;;3.86;100.00;102041.72;5060591;28;20113;-76
2024/03/19 09:40:56;;;;;;;4.90;1.00;;;;;;;3.87;100.00;102045.22;5059833;28;20063;-76
2024/03/19 09:43:23;;;;;;;2.30;1.02;;;;;;;3.91;100.00;102039.53;5061373;28;20158;-76
2024/03/19 09:45:49;;;;;;;3.53;1.00;;;;;;;3.86;100.00;102035.53;5060356;28;20032;-76
2024/03/19 09:48:15;;;;;;;2.67;1.00;;;;;;;3.98;100.00;102040.72;5060654;28;20029;-76
2024/03/19 09:50:43;;;;;;;4.75;1.15;;;;;;;4.04;100.00;102046.50;5060288;28;20035;-76
2024/03/19 09:53:16;;;;;;;3.10;1.15;;;;;;;4.07;100.00;102046.25;5062286;28;20026;-76
2024/03/19 09:55:42;;;;;;;2.17;1.00;;;;;;;3.92;100.00;102027.06;5065103;28;20120;-77
2024/03/19 09:58:09;;;;;;;4.63;1.10;;;;;;;4.09;100.00;102044.31;5065813;28;20081;-76
2024/03/19 10:00:35;;;;;;;2.25;1.10;;;;;;;4.12;100.00;102052.06;5066287;28;20190;-77
2024/03/19 10:03:01;;;;;;;1.88;1.20;;;;;;;4.17;100.00;102047.16;5066534;28;20080;-77
2024/03/19 10:05:26;;;;;;;1.75;0.95;;;;;;;4.18;100.00;102041.72;5066512;28;20055;-77
2024/03/19 10:07:53;;;;;;;3.05;0.98;;;;;;;4.05;100.00;102011.75;5064797;28;20029;-76
2024/03/19 10:10:19;;;;;;;1.20;0.85;;;;;;;4.27;100.00;102044.59;5066245;28;20025;-77
2024/03/19 10:12:44;;;;;;;2.28;0.93;;;;;;;4.14;100.00;102020.78;5064962;28;20081;-76
2024/03/19 10:15:21;;;;;;;2.85;0.80;;;;;;;4.21;100.00;102044.16;5064586;28;20092;-77
2024/03/19 10:17:48;;;;;;;2.05;1.10;;;;;;;4.21;100.00;102049.47;5063809;28;20159;-77
2024/03/19 10:20:15;;;;;;;1.90;0.93;;;;;;;4.26;100.00;102048.25;5063462;28;20024;-77
2024/03/19 10:22:42;;;;;;;2.22;1.00;;;;;;;4.16;100.00;102025.03;5063927;28;20025;-77
2024/03/19 10:25:12;;;;;;;3.05;0.95;;;;;;;4.03;100.00;102019.00;5061907;28;20395;-77
2024/03/19 10:27:46;;;;;;;2.65;1.00;;;;;;;4.08;100.00;102031.97;5061647;28;20029;-77
2024/03/19 10:30:14;;;;;;;3.25;0.90;;;;;;;4.16;100.00;102038.34;5063807;28;20365;-76
2024/03/19 10:32:41;;;;;;;4.20;1.20;;;;;;;4.26;100.00;102042.91;5063210;28;20040;-77
2024/03/19 10:35:20;;;;;;;3.90;1.30;;;;;;;4.30;100.00;102047.00;5062021;28;20043;-77
2024/03/19 10:37:50;;;;;;;2.88;1.48;;;;;;;4.33;100.00;102038.75;5064325;28;20025;-78
2024/03/19 10:40:18;;;;;;;3.63;1.73;;;;;;;4.35;100.00;102031.50;5064219;28;20021;-77
2024/03/19 10:42:45;;;;;;;6.22;1.40;;;;;;;4.54;100.00;102041.47;5065124;28;20013;-77
2024/03/19 10:45:31;;;;;;;18.67;2.28;;;;;;;4.54;100.00;102018.31;5068188;28;20035;-75
2024/03/19 10:47:56;;;;;;;3.72;1.40;;;;;;;4.61;100.00;102030.16;5066717;28;20037;-75
2024/03/19 10:50:23;;;;;;;4.00;1.42;;;;;;;4.63;100.00;102033.50;5066267;28;20455;-75
2024/03/19 10:52:51;;;;;;;2.75;1.67;;;;;;;4.61;100.00;102022.16;5067524;28;20025;-77
2024/03/19 10:55:17;;;;;;;3.00;1.33;;;;;;;4.58;100.00;102035.72;5065974;28;20023;-77
2024/03/19 10:57:45;;;;;;;2.08;1.27;;;;;;;4.63;100.00;102030.84;5065287;28;20058;-78
2024/03/19 11:00:22;;;;;;;3.55;1.38;;;;;;;4.61;100.00;102016.81;5061633;28;20055;-75
2024/03/19 11:02:49;;;;;;;3.33;1.52;;;;;;;4.54;100.00;102028.97;5060303;28;20036;-75
2024/03/19 11:05:19;;;;;;;2.38;1.40;;;;;;;4.53;100.00;102021.09;5060146;28;20037;-75
2024/03/19 11:07:47;;;;;;;2.85;1.48;;;;;;;4.52;100.00;102025.59;5060577;28;20159;-75
2024/03/19 11:10:40;;;;;;;2.60;1.20;;;;;;;4.56;100.00;102026.16;5060404;28;20556;-76
2024/03/19 11:13:08;;;;;;;5.00;1.20;;;;;;;4.63;100.00;102022.84;5060294;28;20048;-76
2024/03/19 11:15:37;;;;;;;5.28;1.10;;;;;;;4.59;100.00;102026.75;5060012;28;20116;-76
2024/03/19 11:18:21;;;;;;;2.50;1.17;;;;;;;4.68;100.00;102025.97;5059991;28;20025;-76